createdAt,value
2022-11-25T00:01:24.583Z,98558.27
2022-11-25T00:03:53.987Z,98563.35
2022-11-25T00:06:25.843Z,98560.36
2022-11-25T00:09:07.558Z,98565.55
2022-11-25T00:11:39.395Z,98570.63
2022-11-25T00:14:07.878Z,98570.71
2022-11-25T00:16:42.508Z,98573.29
2022-11-25T00:19:12.619Z,98572.39
2022-11-25T00:21:40.177Z,98575.59
2022-11-25T00:24:08.047Z,98579.08
2022-11-25T00:26:36.227Z,98578.41
2022-11-25T00:29:06.756Z,98578.30
2022-11-25T00:31:37.618Z,98578.30
2022-11-25T00:34:05.555Z,98580.08
2022-11-25T00:36:35.483Z,98585.02
2022-11-25T00:39:14.096Z,98584.77
2022-11-25T00:42:00.792Z,98585.06
2022-11-25T00:44:38.598Z,98586.20
2022-11-25T00:47:08.710Z,98587.70
2022-11-25T00:49:36.985Z,98595.38
2022-11-25T00:52:04.973Z,98591.09
2022-11-25T00:54:34.091Z,98593.48
2022-11-25T00:57:01.816Z,98599.70
2022-11-25T00:59:34.357Z,98599.24
2022-11-25T01:02:01.955Z,98598.77
2022-11-25T01:04:29.860Z,98599.91
2022-11-25T01:06:59.630Z,98595.65
2022-11-25T01:09:28.006Z,98596.20
2022-11-25T01:11:58.023Z,98592.11
2022-11-25T01:14:27.834Z,98590.52
2022-11-25T01:17:02.666Z,98596.75
2022-11-25T01:19:31.350Z,98594.60
2022-11-25T01:22:01.571Z,98592.84
2022-11-25T01:24:29.232Z,98591.62
2022-11-25T01:26:56.727Z,98596.05
2022-11-25T01:29:24.454Z,98596.08
2022-11-25T01:31:56.295Z,98591.77
2022-11-25T01:34:25.751Z,98586.98
2022-11-25T01:36:53.273Z,98585.41
2022-11-25T01:39:25.668Z,98592.13
2022-11-25T01:41:58.324Z,98592.20
2022-11-25T01:44:30.531Z,98590.41
2022-11-25T01:47:04.506Z,98593.52
2022-11-25T01:57:12.748Z,98601.06
2022-11-25T01:59:43.568Z,98605.69
2022-11-25T02:02:11.103Z,98607.35
2022-11-25T02:04:39.031Z,98604.00
2022-11-25T02:07:15.945Z,98595.89
2022-11-25T02:09:43.888Z,98592.38
2022-11-25T02:12:11.374Z,98589.95
2022-11-25T02:14:39.048Z,98593.08
2022-11-25T02:17:06.649Z,98599.86
2022-11-25T02:19:48.673Z,98608.73
2022-11-25T02:22:21.924Z,98614.47
2022-11-25T02:24:49.496Z,98621.98
2022-11-25T02:27:17.066Z,98619.98
2022-11-25T02:29:44.614Z,98627.79
2022-11-25T02:32:12.632Z,98632.50
2022-11-25T02:34:48.010Z,98637.44
2022-11-25T02:37:16.481Z,98634.25
2022-11-25T02:39:44.171Z,98633.67
2022-11-25T02:42:13.160Z,98632.70
2022-11-25T02:44:40.724Z,98634.58
2022-11-25T02:47:09.302Z,98636.56
2022-11-25T02:49:37.374Z,98636.44
2022-11-25T02:52:05.967Z,98638.36
2022-11-25T02:54:33.765Z,98641.92
2022-11-25T02:57:01.802Z,98642.17
2022-11-25T02:59:32.729Z,98638.34
2022-11-25T03:02:00.248Z,98636.09
2022-11-25T03:04:28.164Z,98639.13
2022-11-25T03:06:56.675Z,98642.27
2022-11-25T03:09:24.811Z,98646.77
2022-11-25T03:12:11.011Z,98646.70
2022-11-25T03:14:38.461Z,98649.35
2022-11-25T03:17:05.923Z,98652.21
2022-11-25T03:19:33.379Z,98654.64
2022-11-25T03:22:00.831Z,98658.48
2022-11-25T03:24:28.394Z,98656.15
2022-11-25T03:26:55.846Z,98663.11
2022-11-25T03:29:23.615Z,98660.63
2022-11-25T03:31:51.121Z,98658.08
2022-11-25T03:34:20.304Z,98656.72
2022-11-25T03:36:48.520Z,98657.11
2022-11-25T03:39:16.615Z,98665.05
2022-11-25T03:41:45.740Z,98663.54
2022-11-25T03:44:13.388Z,98666.55
2022-11-25T03:46:41.755Z,98663.39
2022-11-25T03:49:09.511Z,98661.05
2022-11-25T03:51:37.174Z,98657.63
2022-11-25T03:54:05.348Z,98665.80
2022-11-25T03:56:46.219Z,98675.50
2022-11-25T03:59:13.779Z,98682.23
2022-11-25T04:01:44.207Z,98689.23
2022-11-25T04:04:12.274Z,98689.31
2022-11-25T04:06:39.741Z,98694.94
2022-11-25T04:09:08.212Z,98697.95
2022-11-25T04:11:54.524Z,98697.37
2022-11-25T04:14:24.428Z,98701.55
2022-11-25T04:16:52.086Z,98701.60
2022-11-25T04:19:19.754Z,98702.91
2022-11-25T04:21:52.122Z,98708.33
2022-11-25T04:24:21.110Z,98706.82
2022-11-25T04:26:48.677Z,98708.83
2022-11-25T04:29:16.436Z,98711.94
2022-11-25T04:31:44.200Z,98709.96
2022-11-25T04:34:14.626Z,98717.89
2022-11-25T04:36:42.288Z,98720.11
2022-11-25T04:39:09.744Z,98720.91
2022-11-25T04:41:38.224Z,98720.34
2022-11-25T04:44:05.795Z,98725.22
2022-11-25T04:46:38.143Z,98733.09
2022-11-25T04:49:06.127Z,98734.45
2022-11-25T04:51:33.998Z,98737.36
2022-11-25T04:54:04.217Z,98741.21
2022-11-25T04:56:32.179Z,98746.06
2022-11-25T04:59:18.277Z,98753.02
2022-11-25T05:01:46.841Z,98754.45
2022-11-25T05:04:40.535Z,98759.43
2022-11-25T05:07:09.430Z,98764.77
2022-11-25T05:09:37.898Z,98761.31
2022-11-25T05:12:21.819Z,98761.55
2022-11-25T05:14:49.400Z,98767.20
2022-11-25T05:17:19.342Z,98774.80
2022-11-25T05:19:46.860Z,98775.58
2022-11-25T05:22:16.079Z,98774.33
2022-11-25T05:24:43.834Z,98782.40
2022-11-25T05:27:13.237Z,98785.21
2022-11-25T05:29:40.795Z,98784.76
2022-11-25T05:32:08.461Z,98784.92
2022-11-25T05:34:36.618Z,98787.39
2022-11-25T05:37:04.503Z,98789.80
2022-11-25T05:39:32.984Z,98798.77
2022-11-25T05:42:35.968Z,98805.95
2022-11-25T05:45:05.902Z,98811.21
2022-11-25T05:47:33.855Z,98813.90
2022-11-25T05:50:01.644Z,98819.33
2022-11-25T05:52:29.589Z,98823.59
2022-11-25T05:54:58.778Z,98825.16
2022-11-25T05:57:28.928Z,98824.27
2022-11-25T06:00:10.185Z,98820.74
2022-11-25T06:02:45.127Z,98818.59
2022-11-25T06:05:15.305Z,98820.25
2022-11-25T06:07:43.077Z,98820.08
2022-11-25T06:10:11.066Z,98821.81
2022-11-25T06:12:40.061Z,98826.27
2022-11-25T06:15:08.501Z,98826.71
2022-11-25T06:17:36.211Z,98824.02
2022-11-25T06:20:14.322Z,98822.36
2022-11-25T06:22:41.866Z,98827.67
2022-11-25T06:25:10.365Z,98826.89
2022-11-25T06:28:04.563Z,98831.66
2022-11-25T06:30:26.052Z,98834.13
2022-11-25T06:33:06.516Z,98834.22
2022-11-25T06:35:34.886Z,98838.42
2022-11-25T06:38:03.785Z,98846.27
2022-11-25T06:40:31.437Z,98843.98
2022-11-25T06:42:58.892Z,98838.16
2022-11-25T06:45:26.982Z,98836.23
2022-11-25T06:47:54.530Z,98839.38
2022-11-25T06:50:22.020Z,98842.33
2022-11-25T06:52:49.544Z,98847.92
2022-11-25T06:55:17.817Z,98848.05
2022-11-25T06:57:45.285Z,98848.02
2022-11-25T07:00:13.445Z,98853.38
2022-11-25T07:02:45.297Z,98856.70
2022-11-25T07:05:14.407Z,98852.69
2022-11-25T07:07:41.904Z,98853.38
2022-11-25T07:10:09.981Z,98858.25
2022-11-25T07:12:37.383Z,98863.40
2022-11-25T07:15:05.455Z,98870.59
2022-11-25T07:17:33.138Z,98871.96
2022-11-25T07:20:00.579Z,98868.61
2022-11-25T07:22:28.073Z,98873.89
2022-11-25T07:24:56.013Z,98875.80
2022-11-25T07:27:23.563Z,98873.16
2022-11-25T07:30:10.192Z,98872.08
2022-11-25T07:41:23.844Z,98879.92
2022-11-25T07:43:53.165Z,98886.23
2022-11-25T07:46:29.952Z,98892.16
2022-11-25T07:49:00.456Z,98893.59
2022-11-25T07:51:37.525Z,98893.73
2022-11-25T07:54:06.894Z,98890.12
2022-11-25T07:56:38.394Z,98889.05
2022-11-25T07:59:08.545Z,98900.05
2022-11-25T08:01:36.307Z,98910.20
2022-11-25T08:04:04.653Z,98915.12
2022-11-25T08:06:35.797Z,98916.73
2022-11-25T08:09:03.561Z,98915.40
2022-11-25T08:11:32.767Z,98918.05
2022-11-25T08:14:01.441Z,98919.51
2022-11-25T08:16:33.279Z,98913.98
2022-11-25T08:19:02.808Z,98914.02
2022-11-25T08:21:30.264Z,98916.02
2022-11-25T08:23:58.653Z,98920.20
2022-11-25T08:26:33.648Z,98923.59
2022-11-25T08:29:01.338Z,98925.27
2022-11-25T08:31:32.786Z,98928.20
2022-11-25T08:34:00.753Z,98936.27
2022-11-25T08:36:29.342Z,98937.11
2022-11-25T08:38:57.926Z,98940.11
2022-11-25T08:41:25.382Z,98941.48
2022-11-25T08:43:53.143Z,98939.83
2022-11-25T08:46:22.729Z,98943.27
2022-11-25T08:48:50.308Z,98943.58
2022-11-25T08:51:20.327Z,98942.20
2022-11-25T08:53:48.105Z,98941.60
2022-11-25T08:56:15.911Z,98940.69
2022-11-25T08:58:44.849Z,98938.95
2022-11-25T09:01:12.560Z,98938.63
2022-11-25T09:03:44.873Z,98934.08
2022-11-25T09:06:15.208Z,98936.33
2022-11-25T09:08:50.650Z,98939.33
2022-11-25T09:11:23.298Z,98936.67
2022-11-25T09:13:51.677Z,98931.95
2022-11-25T09:16:21.438Z,98927.80
2022-11-25T09:18:55.265Z,98922.32
2022-11-25T09:21:24.418Z,98922.77
2022-11-25T09:23:54.432Z,98926.27
2022-11-25T09:26:24.671Z,98925.86
2022-11-25T09:28:53.837Z,98923.80
2022-11-25T09:31:22.950Z,98917.88
2022-11-25T09:33:51.121Z,98916.61
2022-11-25T09:36:19.505Z,98919.46
2022-11-25T09:38:50.132Z,98920.67
2022-11-25T09:41:44.730Z,98922.63
2022-11-25T09:44:57.951Z,98928.15
2022-11-25T09:47:48.212Z,98932.36
2022-11-25T09:50:31.061Z,98929.69
2022-11-25T09:53:06.708Z,98929.66
2022-11-25T09:55:38.875Z,98933.61
2022-11-25T09:58:24.562Z,98939.01
2022-11-25T10:00:54.892Z,98947.86
2022-11-25T10:03:43.113Z,98946.09
2022-11-25T10:06:24.878Z,98943.77
2022-11-25T10:08:57.499Z,98948.14
2022-11-25T10:11:30.587Z,98949.84
2022-11-25T10:14:12.286Z,98944.73
2022-11-25T10:17:18.242Z,98947.99
2022-11-25T10:20:04.461Z,98947.48
2022-11-25T10:22:37.428Z,98946.00
2022-11-25T10:25:25.149Z,98947.16
2022-11-25T10:28:25.583Z,98940.59
2022-11-25T10:31:07.811Z,98937.98
2022-11-25T10:33:56.744Z,98936.85
2022-11-25T10:36:35.773Z,98931.37
2022-11-25T10:39:03.953Z,98934.09
2022-11-25T10:41:34.884Z,98938.55
2022-11-25T10:44:03.278Z,98942.77
2022-11-25T10:47:12.822Z,98943.61
2022-11-25T10:50:07.806Z,98944.02
2022-11-25T10:52:39.564Z,98940.17
2022-11-25T10:55:26.343Z,98943.52
2022-11-25T10:57:55.575Z,98947.86
2022-11-25T11:00:36.451Z,98947.42
2022-11-25T11:03:24.195Z,98949.77
2022-11-25T11:05:52.555Z,98955.13
2022-11-25T11:08:23.525Z,98953.13
2022-11-25T11:11:14.300Z,98953.94
2022-11-25T11:13:42.569Z,98956.69
2022-11-25T11:16:30.519Z,98952.00
2022-11-25T11:18:59.220Z,98952.58
2022-11-25T11:21:33.202Z,98955.36
2022-11-25T11:24:02.302Z,98961.79
2022-11-25T11:26:34.058Z,98964.65
2022-11-25T11:29:15.647Z,98964.92
2022-11-25T11:31:56.018Z,98961.61
2022-11-25T11:34:46.100Z,98966.14
2022-11-25T11:37:20.029Z,98964.34
2022-11-25T11:40:25.587Z,98967.23
2022-11-25T11:43:20.372Z,98975.94
2022-11-25T11:45:58.664Z,98977.05
2022-11-25T11:48:28.511Z,98981.05
2022-11-25T11:51:06.474Z,98977.38
2022-11-25T11:53:52.157Z,98976.05
2022-11-25T11:56:38.659Z,98977.92
2022-11-25T11:59:48.757Z,98978.92
2022-11-25T12:02:49.708Z,98984.44
2022-11-25T12:05:24.714Z,98994.56
2022-11-25T12:07:53.055Z,98994.77
2022-11-25T12:10:32.511Z,98992.50
2022-11-25T12:13:08.598Z,98991.77
2022-11-25T12:15:41.552Z,98997.38
2022-11-25T12:18:22.114Z,98994.95
2022-11-25T12:21:02.478Z,98996.77
2022-11-25T12:38:19.833Z,99000.33
2022-11-25T12:40:56.917Z,99002.45
2022-11-25T12:43:34.819Z,99001.20
2022-11-25T12:46:44.870Z,99000.24
2022-11-25T12:49:17.244Z,98998.05
2022-11-25T12:51:53.812Z,99004.52
2022-11-25T12:54:42.989Z,99009.54
2022-11-25T12:57:36.768Z,99016.86
2022-11-25T13:03:24.607Z,99016.89
2022-11-25T13:05:52.369Z,99015.86
2022-11-25T13:08:44.105Z,99014.70
2022-11-25T13:11:41.335Z,99017.11
2022-11-25T13:14:22.219Z,99018.02
2022-11-25T13:16:53.623Z,99020.48
2022-11-25T13:19:21.538Z,99022.73
2022-11-25T13:22:18.280Z,99024.58
2022-11-25T13:24:48.621Z,99026.77
2022-11-25T13:27:33.069Z,99031.96
2022-11-25T13:30:00.955Z,99032.95
2022-11-25T13:32:39.955Z,99029.41
2022-11-25T13:35:25.874Z,99030.78
2022-11-25T13:37:53.810Z,99037.05
2022-11-25T13:40:39.190Z,99043.13
2022-11-25T13:43:21.041Z,99043.85
2022-11-25T13:45:48.524Z,99040.63
2022-11-25T13:48:29.825Z,99049.63
2022-11-25T13:51:22.775Z,99053.34
2022-11-25T13:53:58.812Z,99055.52
2022-11-25T13:56:28.860Z,99054.84
2022-11-25T13:59:11.790Z,99054.19
2022-11-25T14:01:53.186Z,99057.38
2022-11-25T14:04:33.091Z,99065.46
2022-11-25T14:07:24.440Z,99068.28
2022-11-25T14:10:30.377Z,99068.01
2022-11-25T14:13:26.411Z,99067.98
2022-11-25T14:16:12.628Z,99069.02
2022-11-25T14:19:28.067Z,99072.70
2022-11-25T14:22:16.936Z,99070.60
2022-11-25T14:24:54.330Z,99080.73
2022-11-25T14:27:37.242Z,99074.73
2022-11-25T14:30:06.830Z,99072.91
2022-11-25T14:32:42.714Z,99072.51
2022-11-25T14:35:19.418Z,99072.59
2022-11-25T14:37:51.563Z,99067.23
2022-11-25T14:40:24.534Z,99061.95
2022-11-25T14:42:58.238Z,99066.66
2022-11-25T14:45:33.135Z,99070.45
2022-11-25T14:48:14.361Z,99073.45
2022-11-25T14:51:13.551Z,99073.48
2022-11-25T14:54:00.907Z,99074.47
2022-11-25T14:56:31.304Z,99075.77
2022-11-25T14:58:58.651Z,99074.89
2022-11-25T15:01:30.612Z,99077.41
2022-11-25T15:04:06.669Z,99073.59
2022-11-25T15:06:40.069Z,99074.30
2022-11-25T15:09:25.040Z,99081.96
2022-11-25T15:11:57.916Z,99090.05
2022-11-25T15:22:23.228Z,99098.88
2022-11-25T15:24:56.331Z,99095.00
2022-11-25T15:27:29.262Z,99091.70
2022-11-25T15:29:57.763Z,99095.23
2022-11-25T15:32:31.009Z,99094.58
2022-11-25T15:35:01.194Z,99097.55
2022-11-25T15:37:29.213Z,99096.13
2022-11-25T15:40:31.180Z,99094.50
2022-11-25T15:43:00.738Z,99099.48
2022-11-25T15:45:33.983Z,99101.41
2022-11-25T15:48:01.536Z,99099.63
2022-11-25T15:50:28.994Z,99095.11
2022-11-25T15:52:57.639Z,99092.95
2022-11-25T15:55:25.138Z,99095.48
2022-11-25T15:57:52.593Z,99101.27
2022-11-25T16:00:22.049Z,99099.37
2022-11-25T16:02:57.682Z,99096.66
2022-11-25T16:05:36.055Z,99095.48
2022-11-25T16:08:36.499Z,99097.15
2022-11-25T16:11:16.436Z,99095.06
2022-11-25T16:13:44.038Z,99099.87
2022-11-25T16:16:13.446Z,99099.66
2022-11-25T16:18:42.913Z,99096.13
2022-11-25T16:21:16.048Z,99100.69
2022-11-25T16:23:49.282Z,99101.64
2022-11-25T16:26:29.368Z,99097.29
2022-11-25T16:28:58.231Z,99101.21
2022-11-25T16:31:27.867Z,99103.58
2022-11-25T16:34:02.491Z,99105.02
2022-11-25T16:36:29.916Z,99101.91
2022-11-25T16:38:57.887Z,99103.58
2022-11-25T16:41:25.879Z,99102.59
2022-11-25T16:43:59.296Z,99110.71
2022-11-25T16:46:27.820Z,99113.77
2022-11-25T16:48:55.697Z,99114.09
2022-11-25T16:51:24.653Z,99119.09
2022-11-25T16:53:52.154Z,99117.32
2022-11-25T16:56:25.876Z,99113.42
2022-11-25T16:58:55.155Z,99118.35
2022-11-25T17:01:25.474Z,99114.14
2022-11-25T17:03:53.029Z,99116.89
2022-11-25T17:06:22.654Z,99117.20
2022-11-25T17:08:50.810Z,99113.13
2022-11-25T17:11:32.825Z,99114.74
2022-11-25T17:14:02.958Z,99123.48
2022-11-25T17:16:30.614Z,99130.06
2022-11-25T17:18:59.710Z,99128.30
2022-11-25T17:21:29.152Z,99133.70
2022-11-25T17:24:01.358Z,99135.75
2022-11-25T17:26:36.606Z,99137.83
2022-11-25T17:29:05.797Z,99140.39
2022-11-25T17:31:33.751Z,99142.05
2022-11-25T17:34:01.423Z,99144.11
2022-11-25T17:36:28.989Z,99140.69
2022-11-25T17:38:56.551Z,99148.17
2022-11-25T17:41:25.800Z,99151.05
2022-11-25T17:43:54.017Z,99151.19
2022-11-25T17:46:21.924Z,99158.14
2022-11-25T17:48:49.540Z,99152.89
2022-11-25T17:51:17.100Z,99154.84
2022-11-25T17:53:45.275Z,99154.96
2022-11-25T17:56:23.802Z,99151.69
2022-11-25T17:58:52.302Z,99148.06
2022-11-25T18:01:19.857Z,99150.60
2022-11-25T18:03:49.845Z,99150.17
2022-11-25T18:06:17.409Z,99148.80
2022-11-25T18:08:44.863Z,99147.14
2022-11-25T18:11:15.570Z,99143.52
2022-11-25T18:13:43.159Z,99146.48
2022-11-25T18:16:10.657Z,99146.63
2022-11-25T18:18:38.276Z,99149.17
2022-11-25T18:21:06.036Z,99147.69
2022-11-25T18:23:33.597Z,99149.77
2022-11-25T18:26:01.157Z,99141.63
2022-11-25T18:28:30.556Z,99142.21
2022-11-25T18:31:00.758Z,99146.40
2022-11-25T18:33:28.235Z,99147.09
2022-11-25T18:35:55.698Z,99147.30
2022-11-25T18:38:23.256Z,99146.58
2022-11-25T18:40:53.890Z,99143.45
2022-11-25T18:43:26.369Z,99148.36
2022-11-25T18:45:54.396Z,99147.48
2022-11-25T18:48:23.751Z,99151.05
2022-11-25T18:50:52.691Z,99150.91
2022-11-25T18:53:20.387Z,99153.50
2022-11-25T18:55:48.861Z,99156.91
2022-11-25T18:58:24.440Z,99163.23
2022-11-25T19:00:52.168Z,99164.25
2022-11-25T19:03:21.395Z,99162.20
2022-11-25T19:05:49.935Z,99166.73
2022-11-25T19:08:19.046Z,99166.13
2022-11-25T19:10:47.211Z,99174.59
2022-11-25T19:13:17.624Z,99171.31
2022-11-25T19:15:45.111Z,99175.70
2022-11-25T19:18:15.324Z,99174.20
2022-11-25T19:20:42.883Z,99179.25
2022-11-25T19:23:29.181Z,99182.85
2022-11-25T19:26:00.774Z,99183.10
2022-11-25T19:28:28.706Z,99184.61
2022-11-25T19:30:59.286Z,99183.31
2022-11-25T19:33:32.372Z,99189.15
2022-11-25T19:35:59.878Z,99188.66
2022-11-25T19:38:27.350Z,99192.73
2022-11-25T19:40:55.821Z,99189.98
2022-11-25T19:43:24.294Z,99187.05
2022-11-25T19:45:51.847Z,99189.66
2022-11-25T19:48:20.335Z,99188.39
2022-11-25T19:50:52.230Z,99191.29
2022-11-25T19:53:21.314Z,99188.25
2022-11-25T19:55:49.063Z,99188.66
2022-11-25T19:58:16.717Z,99185.55
2022-11-25T20:00:44.976Z,99187.17
2022-11-25T20:03:23.405Z,99188.19
2022-11-25T20:05:52.151Z,99188.50
2022-11-25T20:08:25.145Z,99189.24
2022-11-25T20:10:52.742Z,99186.69
2022-11-25T20:13:21.219Z,99183.68
2022-11-25T20:15:48.784Z,99183.73
2022-11-25T20:18:18.354Z,99183.89
2022-11-25T20:20:46.148Z,99185.45
2022-11-25T20:23:13.610Z,99187.86
2022-11-25T20:25:48.645Z,99182.47
2022-11-25T20:28:34.322Z,99187.00
2022-11-25T20:31:01.779Z,99189.32
2022-11-25T20:33:29.344Z,99188.77
2022-11-25T20:36:08.569Z,99187.83
2022-11-25T20:38:36.031Z,99185.38
2022-11-25T20:41:04.608Z,99191.92
2022-11-25T20:43:33.758Z,99190.29
2022-11-25T20:46:02.313Z,99196.59
2022-11-25T20:48:30.122Z,99202.79
2022-11-25T20:51:01.912Z,99200.02
2022-11-25T20:53:32.369Z,99202.41
2022-11-25T20:56:00.564Z,99204.88
2022-11-25T20:58:30.485Z,99207.29
2022-11-25T21:00:58.529Z,99211.39
2022-11-25T21:03:26.779Z,99214.18
2022-11-25T21:05:55.410Z,99211.60
2022-11-25T21:08:28.555Z,99216.44
2022-11-25T21:10:56.636Z,99221.29
2022-11-25T21:13:25.833Z,99225.93
2022-11-25T21:15:59.385Z,99223.53
2022-11-25T21:18:27.013Z,99224.55
2022-11-25T21:20:55.251Z,99221.35
2022-11-25T21:23:28.443Z,99220.66
2022-11-25T21:25:57.843Z,99217.30
2022-11-25T21:28:26.016Z,99214.12
2022-11-25T21:30:53.587Z,99218.17
2022-11-25T21:33:21.057Z,99223.11
2022-11-25T21:35:48.489Z,99221.80
2022-11-25T21:38:18.215Z,99219.54
2022-11-25T21:40:47.102Z,99219.44
2022-11-25T21:43:25.303Z,99217.66
2022-11-25T21:45:54.229Z,99217.95
2022-11-25T21:48:23.781Z,99216.74
2022-11-25T21:50:51.457Z,99220.01
2022-11-25T21:53:19.327Z,99218.88
2022-11-25T21:55:47.087Z,99220.11
2022-11-25T21:58:18.842Z,99223.34
2022-11-25T22:00:57.308Z,99225.49
2022-11-25T22:03:26.047Z,99223.94
2022-11-25T22:05:53.500Z,99221.29
2022-11-25T22:08:21.991Z,99221.88
2022-11-25T22:10:51.077Z,99226.30
2022-11-25T22:13:20.688Z,99224.56
2022-11-25T22:15:49.245Z,99228.48
2022-11-25T22:18:38.333Z,99235.10
2022-11-25T22:21:06.093Z,99233.31
2022-11-25T22:23:33.652Z,99235.48
2022-11-25T22:26:01.114Z,99235.02
2022-11-25T22:28:28.987Z,99237.68
2022-11-25T22:30:58.386Z,99243.45
2022-11-25T22:33:33.458Z,99241.77
2022-11-25T22:36:01.075Z,99240.80
2022-11-25T22:38:29.553Z,99241.55
2022-11-25T22:41:01.930Z,99242.60
2022-11-25T22:43:35.547Z,99242.21
2022-11-25T22:46:03.632Z,99238.63
2022-11-25T22:48:35.457Z,99239.73
2022-11-25T22:51:03.016Z,99235.68
2022-11-25T22:53:30.678Z,99235.65
2022-11-25T22:55:58.955Z,99236.55
2022-11-25T22:58:26.721Z,99236.77
2022-11-25T23:00:55.053Z,99234.50
2022-11-25T23:03:33.816Z,99237.30
2022-11-25T23:06:03.632Z,99237.59
2022-11-25T23:08:32.137Z,99239.40
2022-11-25T23:10:59.563Z,99237.02
2022-11-25T23:13:27.021Z,99244.42
2022-11-25T23:15:56.361Z,99243.11
2022-11-25T23:18:38.405Z,99240.98
2022-11-25T23:21:07.420Z,99245.23
2022-11-25T23:23:34.871Z,99248.30
2022-11-25T23:26:02.431Z,99248.66
2022-11-25T23:28:29.782Z,99251.65
2022-11-25T23:30:58.394Z,99247.26
2022-11-25T23:33:43.952Z,99243.77
2022-11-25T23:36:13.606Z,99248.71
2022-11-25T23:38:46.542Z,99245.06
2022-11-25T23:41:19.432Z,99245.69
2022-11-25T23:43:46.887Z,99245.80
2022-11-25T23:46:15.306Z,99243.28
2022-11-25T23:48:43.227Z,99246.72
2022-11-25T23:51:10.795Z,99250.08
2022-11-25T23:53:40.376Z,99247.16
2022-11-25T23:56:09.873Z,99251.46
2022-11-25T23:58:38.916Z,99252.13
